sensor_id;sensor_type;location;lat;lon;timestamp;temperature;humidity
38592;DHT22;24356;48.460;11.450;2022-09-09T00:02:27;14.10;84.60
38592;DHT22;24356;48.460;11.450;2022-09-09T00:05:17;14.00;84.60
38592;DHT22;24356;48.460;11.450;2022-09-09T00:07:49;14.00;84.60
38592;DHT22;24356;48.460;11.450;2022-09-09T00:10:39;14.00;84.60
38592;DHT22;24356;48.460;11.450;2022-09-09T00:13:28;14.00;84.60
38592;DHT22;24356;48.460;11.450;2022-09-09T00:24:47;13.90;84.50
38592;DHT22;24356;48.460;11.450;2022-09-09T00:29:43;13.80;84.70
38592;DHT22;24356;48.460;11.450;2022-09-09T00:32:16;13.80;84.70
38592;DHT22;24356;48.460;11.450;2022-09-09T00:35:04;13.80;84.70
38592;DHT22;24356;48.460;11.450;2022-09-09T00:37:42;13.80;84.70
38592;DHT22;24356;48.460;11.450;2022-09-09T00:40:32;13.80;84.80
38592;DHT22;24356;48.460;11.450;2022-09-09T00:43:08;13.70;84.70
38592;DHT22;24356;48.460;11.450;2022-09-09T00:48:32;13.70;84.80
38592;DHT22;24356;48.460;11.450;2022-09-09T00:51:08;13.60;84.80
38592;DHT22;24356;48.460;11.450;2022-09-09T00:56:39;13.60;84.90
38592;DHT22;24356;48.460;11.450;2022-09-09T01:01:37;13.60;84.80
38592;DHT22;24356;48.460;11.450;2022-09-09T01:04:09;13.60;84.90
38592;DHT22;24356;48.460;11.450;2022-09-09T01:06:41;13.50;84.90
38592;DHT22;24356;48.460;11.450;2022-09-09T01:14:38;13.50;84.90
38592;DHT22;24356;48.460;11.450;2022-09-09T01:22:19;13.50;85.00
38592;DHT22;24356;48.460;11.450;2022-09-09T01:27:38;13.40;85.00
38592;DHT22;24356;48.460;11.450;2022-09-09T01:30:12;13.50;85.00
38592;DHT22;24356;48.460;11.450;2022-09-09T01:32:46;13.50;85.00
38592;DHT22;24356;48.460;11.450;2022-09-09T01:35:35;13.50;84.90
38592;DHT22;24356;48.460;11.450;2022-09-09T01:38:04;13.40;85.00
38592;DHT22;24356;48.460;11.450;2022-09-09T01:40:29;13.40;85.00
38592;DHT22;24356;48.460;11.450;2022-09-09T01:42:55;13.40;84.90
38592;DHT22;24356;48.460;11.450;2022-09-09T01:45:22;13.40;85.00
38592;DHT22;24356;48.460;11.450;2022-09-09T01:47:48;13.40;85.00
38592;DHT22;24356;48.460;11.450;2022-09-09T01:50:15;13.40;85.10
38592;DHT22;24356;48.460;11.450;2022-09-09T01:52:42;13.40;85.10
38592;DHT22;24356;48.460;11.450;2022-09-09T01:55:09;13.40;85.00
38592;DHT22;24356;48.460;11.450;2022-09-09T01:58:11;13.40;85.10
38592;DHT22;24356;48.460;11.450;2022-09-09T02:00:48;13.40;85.00
38592;DHT22;24356;48.460;11.450;2022-09-09T02:03:21;13.40;85.10
38592;DHT22;24356;48.460;11.450;2022-09-09T02:08:45;13.40;85.00
38592;DHT22;24356;48.460;11.450;2022-09-09T02:11:18;13.40;85.00
38592;DHT22;24356;48.460;11.450;2022-09-09T02:13:46;13.40;85.00
38592;DHT22;24356;48.460;11.450;2022-09-09T02:16:21;13.40;85.00
38592;DHT22;24356;48.460;11.450;2022-09-09T02:21:19;13.40;84.90
38592;DHT22;24356;48.460;11.450;2022-09-09T02:23:47;13.40;85.00
38592;DHT22;24356;48.460;11.450;2022-09-09T02:26:15;13.40;85.10
38592;DHT22;24356;48.460;11.450;2022-09-09T02:28:47;13.40;84.90
38592;DHT22;24356;48.460;11.450;2022-09-09T02:31:18;13.40;85.00
38592;DHT22;24356;48.460;11.450;2022-09-09T02:33:48;13.40;85.00
38592;DHT22;24356;48.460;11.450;2022-09-09T02:36:17;13.40;84.90
38592;DHT22;24356;48.460;11.450;2022-09-09T02:38:46;13.40;85.00
38592;DHT22;24356;48.460;11.450;2022-09-09T02:41:17;13.40;85.00
38592;DHT22;24356;48.460;11.450;2022-09-09T02:43:44;13.30;85.00
38592;DHT22;24356;48.460;11.450;2022-09-09T02:49:00;13.30;84.90
38592;DHT22;24356;48.460;11.450;2022-09-09T02:54:29;13.30;84.90
38592;DHT22;24356;48.460;11.450;2022-09-09T02:57:01;13.30;84.90
38592;DHT22;24356;48.460;11.450;2022-09-09T02:59:29;13.20;84.80
38592;DHT22;24356;48.460;11.450;2022-09-09T03:01:57;13.20;84.90
38592;DHT22;24356;48.460;11.450;2022-09-09T03:04:23;13.20;84.90
38592;DHT22;24356;48.460;11.450;2022-09-09T03:06:50;13.20;84.90
38592;DHT22;24356;48.460;11.450;2022-09-09T03:09:15;13.20;84.90
38592;DHT22;24356;48.460;11.450;2022-09-09T03:11:41;13.20;84.90
38592;DHT22;24356;48.460;11.450;2022-09-09T03:14:07;13.20;85.00
38592;DHT22;24356;48.460;11.450;2022-09-09T03:16:35;13.20;85.00
38592;DHT22;24356;48.460;11.450;2022-09-09T03:19:01;13.20;85.00
38592;DHT22;24356;48.460;11.450;2022-09-09T03:21:26;13.20;85.00
38592;DHT22;24356;48.460;11.450;2022-09-09T03:23:52;13.20;85.00
38592;DHT22;24356;48.460;11.450;2022-09-09T03:26:18;13.20;85.00
38592;DHT22;24356;48.460;11.450;2022-09-09T03:28:44;13.20;85.10
38592;DHT22;24356;48.460;11.450;2022-09-09T03:31:10;13.20;85.00
38592;DHT22;24356;48.460;11.450;2022-09-09T03:33:37;13.20;85.00
38592;DHT22;24356;48.460;11.450;2022-09-09T03:36:03;13.20;85.10
38592;DHT22;24356;48.460;11.450;2022-09-09T03:38:30;13.20;85.10
38592;DHT22;24356;48.460;11.450;2022-09-09T03:40:57;13.20;85.10
38592;DHT22;24356;48.460;11.450;2022-09-09T03:43:24;13.20;85.10
38592;DHT22;24356;48.460;11.450;2022-09-09T03:45:50;13.20;85.10
38592;DHT22;24356;48.460;11.450;2022-09-09T03:48:17;13.20;85.10
38592;DHT22;24356;48.460;11.450;2022-09-09T03:50:47;13.20;85.00
38592;DHT22;24356;48.460;11.450;2022-09-09T03:53:14;13.20;85.10
38592;DHT22;24356;48.460;11.450;2022-09-09T03:55:48;13.20;85.00
38592;DHT22;24356;48.460;11.450;2022-09-09T04:06:27;13.10;85.00
38592;DHT22;24356;48.460;11.450;2022-09-09T04:09:04;13.10;85.00
38592;DHT22;24356;48.460;11.450;2022-09-09T04:12:41;13.10;85.00
38592;DHT22;24356;48.460;11.450;2022-09-09T04:22:25;13.00;85.00
38592;DHT22;24356;48.460;11.450;2022-09-09T04:25:57;13.00;85.00
38592;DHT22;24356;48.460;11.450;2022-09-09T04:33:32;13.00;85.00
38592;DHT22;24356;48.460;11.450;2022-09-09T04:40:01;12.90;85.00
38592;DHT22;24356;48.460;11.450;2022-09-09T04:46:40;12.80;85.00
38592;DHT22;24356;48.460;11.450;2022-09-09T04:53:28;12.80;85.00
38592;DHT22;24356;48.460;11.450;2022-09-09T04:56:29;12.80;85.10
38592;DHT22;24356;48.460;11.450;2022-09-09T05:00:13;12.80;85.10
38592;DHT22;24356;48.460;11.450;2022-09-09T05:03:32;12.80;85.10
38592;DHT22;24356;48.460;11.450;2022-09-09T05:06:33;12.80;85.10
38592;DHT22;24356;48.460;11.450;2022-09-09T05:09:21;12.80;85.10
38592;DHT22;24356;48.460;11.450;2022-09-09T05:12:33;12.80;85.10
38592;DHT22;24356;48.460;11.450;2022-09-09T05:16:02;12.80;85.10
38592;DHT22;24356;48.460;11.450;2022-09-09T05:18:56;12.90;85.10
38592;DHT22;24356;48.460;11.450;2022-09-09T05:28:42;13.00;85.10
38592;DHT22;24356;48.460;11.450;2022-09-09T05:31:56;13.00;85.10
38592;DHT22;24356;48.460;11.450;2022-09-09T05:35:29;13.00;85.10
38592;DHT22;24356;48.460;11.450;2022-09-09T05:38:41;13.10;85.10
38592;DHT22;24356;48.460;11.450;2022-09-09T05:42:21;13.10;85.00
38592;DHT22;24356;48.460;11.450;2022-09-09T05:45:01;13.10;85.10
38592;DHT22;24356;48.460;11.450;2022-09-09T05:48:22;13.20;84.90
38592;DHT22;24356;48.460;11.450;2022-09-09T05:51:32;13.20;84.80
38592;DHT22;24356;48.460;11.450;2022-09-09T05:54:44;13.30;84.90
38592;DHT22;24356;48.460;11.450;2022-09-09T05:57:38;13.30;84.80
38592;DHT22;24356;48.460;11.450;2022-09-09T06:07:36;13.40;84.80
38592;DHT22;24356;48.460;11.450;2022-09-09T06:11:16;13.40;84.70
38592;DHT22;24356;48.460;11.450;2022-09-09T06:14:51;13.50;84.70
38592;DHT22;24356;48.460;11.450;2022-09-09T06:18:04;13.50;84.60
38592;DHT22;24356;48.460;11.450;2022-09-09T06:24:50;13.60;84.70
38592;DHT22;24356;48.460;11.450;2022-09-09T06:28:27;13.60;85.10
38592;DHT22;24356;48.460;11.450;2022-09-09T06:31:27;13.70;85.00
38592;DHT22;24356;48.460;11.450;2022-09-09T06:35:06;13.70;84.80
38592;DHT22;24356;48.460;11.450;2022-09-09T06:38:31;13.70;85.20
38592;DHT22;24356;48.460;11.450;2022-09-09T06:41:51;13.70;85.00
38592;DHT22;24356;48.460;11.450;2022-09-09T06:45:12;13.80;85.10
38592;DHT22;24356;48.460;11.450;2022-09-09T06:48:24;13.80;85.10
38592;DHT22;24356;48.460;11.450;2022-09-09T06:51:34;13.80;84.90
38592;DHT22;24356;48.460;11.450;2022-09-09T06:55:16;13.80;84.90
38592;DHT22;24356;48.460;11.450;2022-09-09T06:58:31;13.80;85.20
38592;DHT22;24356;48.460;11.450;2022-09-09T07:01:25;13.90;85.20
38592;DHT22;24356;48.460;11.450;2022-09-09T07:04:21;13.90;85.30
38592;DHT22;24356;48.460;11.450;2022-09-09T07:07:25;13.90;85.80
38592;DHT22;24356;48.460;11.450;2022-09-09T07:10:02;13.90;85.60
38592;DHT22;24356;48.460;11.450;2022-09-09T07:12:57;13.90;85.50
38592;DHT22;24356;48.460;11.450;2022-09-09T07:15:36;13.90;86.10
38592;DHT22;24356;48.460;11.450;2022-09-09T07:18:34;13.90;85.20
38592;DHT22;24356;48.460;11.450;2022-09-09T07:21:25;13.90;85.20
38592;DHT22;24356;48.460;11.450;2022-09-09T07:24:38;13.90;85.40
38592;DHT22;24356;48.460;11.450;2022-09-09T07:27:33;13.90;85.20
38592;DHT22;24356;48.460;11.450;2022-09-09T07:30:33;14.00;85.20
38592;DHT22;24356;48.460;11.450;2022-09-09T07:33:22;14.00;85.30
38592;DHT22;24356;48.460;11.450;2022-09-09T07:36:13;14.00;84.80
38592;DHT22;24356;48.460;11.450;2022-09-09T07:39:08;14.00;85.20
38592;DHT22;24356;48.460;11.450;2022-09-09T07:42:08;14.00;85.40
38592;DHT22;24356;48.460;11.450;2022-09-09T07:44:39;14.00;85.30
38592;DHT22;24356;48.460;11.450;2022-09-09T07:47:21;14.10;85.30
38592;DHT22;24356;48.460;11.450;2022-09-09T07:50:26;14.10;85.90
38592;DHT22;24356;48.460;11.450;2022-09-09T07:53:05;14.10;85.70
38592;DHT22;24356;48.460;11.450;2022-09-09T07:56:08;14.20;86.70
38592;DHT22;24356;48.460;11.450;2022-09-09T07:59:13;14.20;86.40
38592;DHT22;24356;48.460;11.450;2022-09-09T08:01:43;14.20;86.90
38592;DHT22;24356;48.460;11.450;2022-09-09T08:04:30;14.30;86.20
38592;DHT22;24356;48.460;11.450;2022-09-09T08:06:58;14.30;85.80
38592;DHT22;24356;48.460;11.450;2022-09-09T08:09:25;14.40;86.10
38592;DHT22;24356;48.460;11.450;2022-09-09T08:11:54;14.50;86.50
38592;DHT22;24356;48.460;11.450;2022-09-09T08:14:22;14.50;86.60
38592;DHT22;24356;48.460;11.450;2022-09-09T08:16:49;14.60;87.30
38592;DHT22;24356;48.460;11.450;2022-09-09T08:19:16;14.70;87.10
38592;DHT22;24356;48.460;11.450;2022-09-09T08:21:43;14.70;87.60
38592;DHT22;24356;48.460;11.450;2022-09-09T08:24:10;14.80;86.80
38592;DHT22;24356;48.460;11.450;2022-09-09T08:26:38;14.80;86.10
38592;DHT22;24356;48.460;11.450;2022-09-09T08:29:06;14.80;86.40
38592;DHT22;24356;48.460;11.450;2022-09-09T08:31:40;14.90;87.20
38592;DHT22;24356;48.460;11.450;2022-09-09T08:34:06;15.00;86.80
38592;DHT22;24356;48.460;11.450;2022-09-09T08:36:38;15.00;86.70
38592;DHT22;24356;48.460;11.450;2022-09-09T08:39:05;15.10;85.80
38592;DHT22;24356;48.460;11.450;2022-09-09T08:50:02;15.40;85.80
38592;DHT22;24356;48.460;11.450;2022-09-09T08:52:38;15.50;85.20
38592;DHT22;24356;48.460;11.450;2022-09-09T08:57:55;15.70;85.00
38592;DHT22;24356;48.460;11.450;2022-09-09T09:00:21;15.90;85.30
38592;DHT22;24356;48.460;11.450;2022-09-09T09:06:10;16.40;85.60
38592;DHT22;24356;48.460;11.450;2022-09-09T09:08:46;16.60;84.70
38592;DHT22;24356;48.460;11.450;2022-09-09T09:11:15;16.80;83.90
38592;DHT22;24356;48.460;11.450;2022-09-09T09:14:01;16.90;84.10
38592;DHT22;24356;48.460;11.450;2022-09-09T09:16:36;17.00;83.20
38592;DHT22;24356;48.460;11.450;2022-09-09T09:19:14;17.10;83.90
38592;DHT22;24356;48.460;11.450;2022-09-09T09:24:31;17.20;83.50
38592;DHT22;24356;48.460;11.450;2022-09-09T09:27:12;17.30;82.60
38592;DHT22;24356;48.460;11.450;2022-09-09T09:29:40;17.30;82.40
38592;DHT22;24356;48.460;11.450;2022-09-09T09:32:13;17.40;82.00
38592;DHT22;24356;48.460;11.450;2022-09-09T09:34:39;17.40;83.20
38592;DHT22;24356;48.460;11.450;2022-09-09T09:37:28;17.50;83.00
38592;DHT22;24356;48.460;11.450;2022-09-09T09:39:54;17.50;82.90
38592;DHT22;24356;48.460;11.450;2022-09-09T09:42:20;17.60;82.50
38592;DHT22;24356;48.460;11.450;2022-09-09T09:44:46;17.70;82.80
38592;DHT22;24356;48.460;11.450;2022-09-09T09:47:20;17.70;82.40
38592;DHT22;24356;48.460;11.450;2022-09-09T09:49:52;17.80;82.30
38592;DHT22;24356;48.460;11.450;2022-09-09T09:52:25;17.80;82.50
38592;DHT22;24356;48.460;11.450;2022-09-09T09:54:52;17.90;82.10
38592;DHT22;24356;48.460;11.450;2022-09-09T09:57:40;17.90;81.70
38592;DHT22;24356;48.460;11.450;2022-09-09T10:00:15;18.00;81.60
38592;DHT22;24356;48.460;11.450;2022-09-09T10:02:44;18.00;81.20
38592;DHT22;24356;48.460;11.450;2022-09-09T10:05:20;18.10;80.60
38592;DHT22;24356;48.460;11.450;2022-09-09T10:07:47;18.10;80.80
38592;DHT22;24356;48.460;11.450;2022-09-09T10:10:34;18.20;80.70
38592;DHT22;24356;48.460;11.450;2022-09-09T10:15:59;18.20;80.70
38592;DHT22;24356;48.460;11.450;2022-09-09T10:18:39;18.20;80.60
38592;DHT22;24356;48.460;11.450;2022-09-09T10:29:50;18.40;81.20
38592;DHT22;24356;48.460;11.450;2022-09-09T10:40:37;18.70;80.80
38592;DHT22;24356;48.460;11.450;2022-09-09T10:43:16;18.80;80.60
38592;DHT22;24356;48.460;11.450;2022-09-09T10:54:14;19.10;80.00
38592;DHT22;24356;48.460;11.450;2022-09-09T10:56:45;19.20;79.80
38592;DHT22;24356;48.460;11.450;2022-09-09T10:59:20;19.40;80.00
38592;DHT22;24356;48.460;11.450;2022-09-09T11:01:53;19.50;79.20
38592;DHT22;24356;48.460;11.450;2022-09-09T11:04:27;19.70;79.40
38592;DHT22;24356;48.460;11.450;2022-09-09T11:06:58;19.90;78.90
38592;DHT22;24356;48.460;11.450;2022-09-09T11:09:32;20.10;78.00
38592;DHT22;24356;48.460;11.450;2022-09-09T11:12:00;20.20;77.90
38592;DHT22;24356;48.460;11.450;2022-09-09T11:14:49;20.30;77.50
38592;DHT22;24356;48.460;11.450;2022-09-09T11:17:20;20.40;77.30
38592;DHT22;24356;48.460;11.450;2022-09-09T11:19:48;20.50;77.60
38592;DHT22;24356;48.460;11.450;2022-09-09T11:24:59;20.90;76.70
38592;DHT22;24356;48.460;11.450;2022-09-09T11:33:29;21.00;75.70
38592;DHT22;24356;48.460;11.450;2022-09-09T11:38:56;20.90;75.90
38592;DHT22;24356;48.460;11.450;2022-09-09T11:41:23;20.90;75.80
38592;DHT22;24356;48.460;11.450;2022-09-09T11:43:51;20.90;75.00
38592;DHT22;24356;48.460;11.450;2022-09-09T11:46:20;20.80;75.40
38592;DHT22;24356;48.460;11.450;2022-09-09T11:49:01;20.80;75.30
38592;DHT22;24356;48.460;11.450;2022-09-09T11:51:29;20.90;75.30
38592;DHT22;24356;48.460;11.450;2022-09-09T11:54:27;20.90;75.60
38592;DHT22;24356;48.460;11.450;2022-09-09T11:56:55;20.90;75.80
38592;DHT22;24356;48.460;11.450;2022-09-09T11:59:22;21.00;75.70
38592;DHT22;24356;48.460;11.450;2022-09-09T12:06:59;21.10;75.60
38592;DHT22;24356;48.460;11.450;2022-09-09T12:09:48;21.20;75.40
38592;DHT22;24356;48.460;11.450;2022-09-09T12:12:28;21.20;75.50
38592;DHT22;24356;48.460;11.450;2022-09-09T12:17:23;21.30;74.90
38592;DHT22;24356;48.460;11.450;2022-09-09T12:31:03;21.60;74.50
38592;DHT22;24356;48.460;11.450;2022-09-09T12:33:36;21.70;74.60
38592;DHT22;24356;48.460;11.450;2022-09-09T12:36:03;21.70;73.70
38592;DHT22;24356;48.460;11.450;2022-09-09T12:40:57;21.80;73.20
38592;DHT22;24356;48.460;11.450;2022-09-09T12:43:25;21.80;73.50
38592;DHT22;24356;48.460;11.450;2022-09-09T12:46:00;21.80;73.50
38592;DHT22;24356;48.460;11.450;2022-09-09T12:48:40;21.90;73.60
38592;DHT22;24356;48.460;11.450;2022-09-09T12:51:27;21.90;73.50
38592;DHT22;24356;48.460;11.450;2022-09-09T12:53:54;22.00;73.70
38592;DHT22;24356;48.460;11.450;2022-09-09T12:56:26;22.00;73.20
38592;DHT22;24356;48.460;11.450;2022-09-09T12:58:54;22.10;72.90
38592;DHT22;24356;48.460;11.450;2022-09-09T13:01:29;22.10;72.50
38592;DHT22;24356;48.460;11.450;2022-09-09T13:03:55;22.00;72.30
38592;DHT22;24356;48.460;11.450;2022-09-09T13:06:24;22.00;72.00
38592;DHT22;24356;48.460;11.450;2022-09-09T13:08:51;22.00;72.10
38592;DHT22;24356;48.460;11.450;2022-09-09T13:11:21;21.90;72.20
38592;DHT22;24356;48.460;11.450;2022-09-09T13:13:53;21.90;72.50
38592;DHT22;24356;48.460;11.450;2022-09-09T13:16:32;21.90;72.60
38592;DHT22;24356;48.460;11.450;2022-09-09T13:19:01;21.70;71.90
38592;DHT22;24356;48.460;11.450;2022-09-09T13:21:34;21.40;73.60
38592;DHT22;24356;48.460;11.450;2022-09-09T13:24:01;21.50;73.70
38592;DHT22;24356;48.460;11.450;2022-09-09T13:26:30;21.50;73.40
38592;DHT22;24356;48.460;11.450;2022-09-09T13:29:09;21.50;73.40
38592;DHT22;24356;48.460;11.450;2022-09-09T13:31:42;21.60;73.20
38592;DHT22;24356;48.460;11.450;2022-09-09T13:34:29;21.60;73.20
38592;DHT22;24356;48.460;11.450;2022-09-09T13:37:03;21.60;73.40
38592;DHT22;24356;48.460;11.450;2022-09-09T13:39:33;21.60;73.50
38592;DHT22;24356;48.460;11.450;2022-09-09T13:42:00;21.70;73.10
38592;DHT22;24356;48.460;11.450;2022-09-09T13:44:36;21.80;73.10
38592;DHT22;24356;48.460;11.450;2022-09-09T13:47:18;21.80;72.60
38592;DHT22;24356;48.460;11.450;2022-09-09T13:49:48;21.80;72.70
38592;DHT22;24356;48.460;11.450;2022-09-09T13:52:18;21.90;72.50
38592;DHT22;24356;48.460;11.450;2022-09-09T13:54:48;21.90;72.70
38592;DHT22;24356;48.460;11.450;2022-09-09T13:57:20;22.10;73.70
38592;DHT22;24356;48.460;11.450;2022-09-09T13:59:47;22.50;72.90
38592;DHT22;24356;48.460;11.450;2022-09-09T14:02:13;22.60;72.60
38592;DHT22;24356;48.460;11.450;2022-09-09T14:04:39;22.70;72.50
38592;DHT22;24356;48.460;11.450;2022-09-09T14:07:11;22.80;72.10
38592;DHT22;24356;48.460;11.450;2022-09-09T14:09:37;22.80;72.10
38592;DHT22;24356;48.460;11.450;2022-09-09T14:12:03;22.80;71.80
38592;DHT22;24356;48.460;11.450;2022-09-09T14:14:29;22.80;71.80
38592;DHT22;24356;48.460;11.450;2022-09-09T14:16:55;22.80;71.70
38592;DHT22;24356;48.460;11.450;2022-09-09T14:19:21;22.80;71.60
38592;DHT22;24356;48.460;11.450;2022-09-09T14:21:46;22.80;71.50
38592;DHT22;24356;48.460;11.450;2022-09-09T14:24:12;22.80;71.50
38592;DHT22;24356;48.460;11.450;2022-09-09T14:26:38;22.80;71.50
38592;DHT22;24356;48.460;11.450;2022-09-09T14:29:03;22.80;71.60
38592;DHT22;24356;48.460;11.450;2022-09-09T14:31:29;22.70;71.50
38592;DHT22;24356;48.460;11.450;2022-09-09T14:33:55;22.70;71.40
38592;DHT22;24356;48.460;11.450;2022-09-09T14:36:21;22.60;71.20
38592;DHT22;24356;48.460;11.450;2022-09-09T14:38:47;22.50;71.00
38592;DHT22;24356;48.460;11.450;2022-09-09T14:41:14;22.40;71.20
38592;DHT22;24356;48.460;11.450;2022-09-09T14:43:44;22.30;71.00
38592;DHT22;24356;48.460;11.450;2022-09-09T14:46:12;22.20;70.90
38592;DHT22;24356;48.460;11.450;2022-09-09T14:48:39;22.10;71.10
38592;DHT22;24356;48.460;11.450;2022-09-09T14:51:12;22.00;71.30
38592;DHT22;24356;48.460;11.450;2022-09-09T14:53:39;21.90;71.30
38592;DHT22;24356;48.460;11.450;2022-09-09T14:56:09;21.80;71.40
38592;DHT22;24356;48.460;11.450;2022-09-09T14:58:36;21.80;71.40
38592;DHT22;24356;48.460;11.450;2022-09-09T15:01:08;21.60;71.20
38592;DHT22;24356;48.460;11.450;2022-09-09T15:03:38;21.50;71.40
38592;DHT22;24356;48.460;11.450;2022-09-09T15:06:11;21.40;71.50
38592;DHT22;24356;48.460;11.450;2022-09-09T15:08:39;21.30;71.50
38592;DHT22;24356;48.460;11.450;2022-09-09T15:11:05;21.20;71.50
38592;DHT22;24356;48.460;11.450;2022-09-09T15:13:34;21.20;71.90
38592;DHT22;24356;48.460;11.450;2022-09-09T15:16:07;21.10;72.10
38592;DHT22;24356;48.460;11.450;2022-09-09T15:18:33;21.00;72.20
38592;DHT22;24356;48.460;11.450;2022-09-09T15:21:03;20.90;72.70
38592;DHT22;24356;48.460;11.450;2022-09-09T15:23:32;20.80;72.80
38592;DHT22;24356;48.460;11.450;2022-09-09T15:25:58;20.70;73.10
38592;DHT22;24356;48.460;11.450;2022-09-09T15:28:23;20.50;73.20
38592;DHT22;24356;48.460;11.450;2022-09-09T15:30:50;20.40;73.40
38592;DHT22;24356;48.460;11.450;2022-09-09T15:33:18;20.20;73.70
38592;DHT22;24356;48.460;11.450;2022-09-09T15:35:43;20.10;74.00
38592;DHT22;24356;48.460;11.450;2022-09-09T15:38:09;20.00;74.30
38592;DHT22;24356;48.460;11.450;2022-09-09T15:40:35;19.90;74.70
38592;DHT22;24356;48.460;11.450;2022-09-09T15:43:01;19.90;74.80
38592;DHT22;24356;48.460;11.450;2022-09-09T15:45:28;19.90;75.00
38592;DHT22;24356;48.460;11.450;2022-09-09T15:47:56;19.90;75.40
38592;DHT22;24356;48.460;11.450;2022-09-09T15:50:21;19.90;75.80
38592;DHT22;24356;48.460;11.450;2022-09-09T15:52:48;19.90;75.90
38592;DHT22;24356;48.460;11.450;2022-09-09T15:55:13;19.90;76.00
38592;DHT22;24356;48.460;11.450;2022-09-09T15:57:39;19.90;76.20
38592;DHT22;24356;48.460;11.450;2022-09-09T16:00:06;19.90;76.10
38592;DHT22;24356;48.460;11.450;2022-09-09T16:02:32;19.90;76.10
38592;DHT22;24356;48.460;11.450;2022-09-09T16:04:58;19.90;76.20
38592;DHT22;24356;48.460;11.450;2022-09-09T16:07:23;20.00;76.30
38592;DHT22;24356;48.460;11.450;2022-09-09T16:09:49;20.00;76.50
38592;DHT22;24356;48.460;11.450;2022-09-09T16:12:18;20.10;76.80
38592;DHT22;24356;48.460;11.450;2022-09-09T16:14:44;20.00;77.20
38592;DHT22;24356;48.460;11.450;2022-09-09T16:17:10;20.00;77.40
38592;DHT22;24356;48.460;11.450;2022-09-09T16:19:36;20.00;77.10
38592;DHT22;24356;48.460;11.450;2022-09-09T16:22:04;20.00;77.20
38592;DHT22;24356;48.460;11.450;2022-09-09T16:24:30;20.00;77.40
38592;DHT22;24356;48.460;11.450;2022-09-09T16:26:55;20.00;77.60
38592;DHT22;24356;48.460;11.450;2022-09-09T16:29:22;19.90;77.60
38592;DHT22;24356;48.460;11.450;2022-09-09T16:31:48;19.90;77.70
38592;DHT22;24356;48.460;11.450;2022-09-09T16:34:15;19.90;77.90
38592;DHT22;24356;48.460;11.450;2022-09-09T16:36:42;19.80;78.00
38592;DHT22;24356;48.460;11.450;2022-09-09T16:39:12;19.80;78.00
38592;DHT22;24356;48.460;11.450;2022-09-09T16:41:40;19.70;77.90
38592;DHT22;24356;48.460;11.450;2022-09-09T16:44:08;19.70;78.30
38592;DHT22;24356;48.460;11.450;2022-09-09T16:46:39;19.60;78.50
38592;DHT22;24356;48.460;11.450;2022-09-09T16:49:08;19.50;78.90
38592;DHT22;24356;48.460;11.450;2022-09-09T16:51:40;19.40;78.90
38592;DHT22;24356;48.460;11.450;2022-09-09T16:54:08;19.40;79.20
38592;DHT22;24356;48.460;11.450;2022-09-09T16:56:36;19.30;79.20
38592;DHT22;24356;48.460;11.450;2022-09-09T16:59:07;19.20;79.50
38592;DHT22;24356;48.460;11.450;2022-09-09T17:01:35;19.10;79.70
38592;DHT22;24356;48.460;11.450;2022-09-09T17:04:07;19.00;79.30
38592;DHT22;24356;48.460;11.450;2022-09-09T17:06:34;19.00;79.10
38592;DHT22;24356;48.460;11.450;2022-09-09T17:09:01;18.90;79.50
38592;DHT22;24356;48.460;11.450;2022-09-09T17:11:28;18.80;79.00
38592;DHT22;24356;48.460;11.450;2022-09-09T17:13:55;18.70;79.20
38592;DHT22;24356;48.460;11.450;2022-09-09T17:16:23;18.60;79.20
38592;DHT22;24356;48.460;11.450;2022-09-09T17:18:52;18.60;79.50
38592;DHT22;24356;48.460;11.450;2022-09-09T17:21:20;18.50;79.30
38592;DHT22;24356;48.460;11.450;2022-09-09T17:23:47;18.40;79.40
38592;DHT22;24356;48.460;11.450;2022-09-09T17:26:15;18.40;79.40
38592;DHT22;24356;48.460;11.450;2022-09-09T17:28:42;18.30;78.80
38592;DHT22;24356;48.460;11.450;2022-09-09T17:31:10;18.20;78.90
38592;DHT22;24356;48.460;11.450;2022-09-09T17:33:38;18.10;79.00
38592;DHT22;24356;48.460;11.450;2022-09-09T17:36:10;18.00;79.00
38592;DHT22;24356;48.460;11.450;2022-09-09T17:38:37;17.90;79.20
38592;DHT22;24356;48.460;11.450;2022-09-09T17:41:08;17.90;79.20
38592;DHT22;24356;48.460;11.450;2022-09-09T17:43:34;17.80;79.20
38592;DHT22;24356;48.460;11.450;2022-09-09T17:48:43;17.70;78.90
38592;DHT22;24356;48.460;11.450;2022-09-09T17:51:13;17.60;79.10
38592;DHT22;24356;48.460;11.450;2022-09-09T17:53:42;17.50;79.30
38592;DHT22;24356;48.460;11.450;2022-09-09T17:56:10;17.50;79.30
38592;DHT22;24356;48.460;11.450;2022-09-09T17:58:36;17.40;79.50
38592;DHT22;24356;48.460;11.450;2022-09-09T18:01:11;17.40;79.70
38592;DHT22;24356;48.460;11.450;2022-09-09T18:03:39;17.30;79.80
38592;DHT22;24356;48.460;11.450;2022-09-09T18:06:07;17.30;79.70
38592;DHT22;24356;48.460;11.450;2022-09-09T18:08:34;17.30;79.80
38592;DHT22;24356;48.460;11.450;2022-09-09T18:11:00;17.20;79.60
38592;DHT22;24356;48.460;11.450;2022-09-09T18:13:27;17.20;79.60
38592;DHT22;24356;48.460;11.450;2022-09-09T18:15:53;17.20;79.70
38592;DHT22;24356;48.460;11.450;2022-09-09T18:18:19;17.10;79.80
38592;DHT22;24356;48.460;11.450;2022-09-09T18:20:46;17.10;79.90
38592;DHT22;24356;48.460;11.450;2022-09-09T18:23:20;17.00;79.80
38592;DHT22;24356;48.460;11.450;2022-09-09T18:25:46;17.00;80.10
38592;DHT22;24356;48.460;11.450;2022-09-09T18:28:12;16.90;80.10
38592;DHT22;24356;48.460;11.450;2022-09-09T18:30:38;16.90;80.30
38592;DHT22;24356;48.460;11.450;2022-09-09T18:33:04;16.90;80.30
38592;DHT22;24356;48.460;11.450;2022-09-09T18:35:30;16.80;80.70
38592;DHT22;24356;48.460;11.450;2022-09-09T18:37:56;16.70;80.90
38592;DHT22;24356;48.460;11.450;2022-09-09T18:40:22;16.70;80.80
38592;DHT22;24356;48.460;11.450;2022-09-09T18:42:48;16.60;81.10
38592;DHT22;24356;48.460;11.450;2022-09-09T18:45:13;16.50;81.00
38592;DHT22;24356;48.460;11.450;2022-09-09T18:47:40;16.50;81.20
38592;DHT22;24356;48.460;11.450;2022-09-09T18:50:07;16.40;81.40
38592;DHT22;24356;48.460;11.450;2022-09-09T18:52:32;16.40;81.40
38592;DHT22;24356;48.460;11.450;2022-09-09T18:54:59;16.30;81.60
38592;DHT22;24356;48.460;11.450;2022-09-09T18:57:24;16.20;81.90
38592;DHT22;24356;48.460;11.450;2022-09-09T18:59:52;16.20;81.90
38592;DHT22;24356;48.460;11.450;2022-09-09T19:02:19;16.10;81.90
38592;DHT22;24356;48.460;11.450;2022-09-09T19:04:46;16.00;82.20